sensor_id;sensor_type;location;lat;lon;timestamp;temperature;humidity
23251;DHT22;11794;49.730;10.088;2022-10-15T00:01:50;13.70;99.90
23251;DHT22;11794;49.730;10.088;2022-10-15T00:04:15;13.70;99.90
23251;DHT22;11794;49.730;10.088;2022-10-15T00:06:41;13.70;99.90
23251;DHT22;11794;49.730;10.088;2022-10-15T00:09:06;13.70;99.90
23251;DHT22;11794;49.730;10.088;2022-10-15T00:11:32;13.70;99.90
23251;DHT22;11794;49.730;10.088;2022-10-15T00:13:59;13.70;99.90
23251;DHT22;11794;49.730;10.088;2022-10-15T00:16:27;13.80;99.90
23251;DHT22;11794;49.730;10.088;2022-10-15T00:18:57;13.80;99.90
23251;DHT22;11794;49.730;10.088;2022-10-15T00:21:23;13.80;99.90
23251;DHT22;11794;49.730;10.088;2022-10-15T00:23:49;13.80;99.90
23251;DHT22;11794;49.730;10.088;2022-10-15T00:26:20;13.80;99.90
23251;DHT22;11794;49.730;10.088;2022-10-15T00:28:47;13.80;99.90
23251;DHT22;11794;49.730;10.088;2022-10-15T00:31:16;13.80;99.90
23251;DHT22;11794;49.730;10.088;2022-10-15T00:33:42;13.70;99.90
23251;DHT22;11794;49.730;10.088;2022-10-15T00:36:14;13.70;99.90
23251;DHT22;11794;49.730;10.088;2022-10-15T00:38:40;13.80;99.90
23251;DHT22;11794;49.730;10.088;2022-10-15T00:41:07;13.70;99.90
23251;DHT22;11794;49.730;10.088;2022-10-15T00:43:47;13.70;99.90
23251;DHT22;11794;49.730;10.088;2022-10-15T00:46:21;13.70;99.90
23251;DHT22;11794;49.730;10.088;2022-10-15T00:48:51;13.70;99.90
23251;DHT22;11794;49.730;10.088;2022-10-15T00:51:18;13.70;99.90
23251;DHT22;11794;49.730;10.088;2022-10-15T00:53:45;13.70;99.90
23251;DHT22;11794;49.730;10.088;2022-10-15T00:56:11;13.70;99.90
23251;DHT22;11794;49.730;10.088;2022-10-15T00:58:38;13.80;99.90
23251;DHT22;11794;49.730;10.088;2022-10-15T01:01:03;13.70;99.90
23251;DHT22;11794;49.730;10.088;2022-10-15T01:03:29;13.80;99.90
23251;DHT22;11794;49.730;10.088;2022-10-15T01:05:55;13.80;99.90
23251;DHT22;11794;49.730;10.088;2022-10-15T01:08:20;13.80;99.90
23251;DHT22;11794;49.730;10.088;2022-10-15T01:14:06;13.80;99.90
23251;DHT22;11794;49.730;10.088;2022-10-15T01:16:57;13.80;99.90
23251;DHT22;11794;49.730;10.088;2022-10-15T01:22:29;13.80;99.90
23251;DHT22;11794;49.730;10.088;2022-10-15T01:25:23;13.80;99.90
23251;DHT22;11794;49.730;10.088;2022-10-15T01:27:57;13.80;99.90
23251;DHT22;11794;49.730;10.088;2022-10-15T01:30:38;13.80;99.90
23251;DHT22;11794;49.730;10.088;2022-10-15T01:33:11;13.70;99.90
23251;DHT22;11794;49.730;10.088;2022-10-15T01:41:26;13.80;99.90
23251;DHT22;11794;49.730;10.088;2022-10-15T01:46:44;13.80;99.90
23251;DHT22;11794;49.730;10.088;2022-10-15T01:49:12;13.90;99.90
23251;DHT22;11794;49.730;10.088;2022-10-15T01:51:40;13.90;99.90
23251;DHT22;11794;49.730;10.088;2022-10-15T01:54:10;13.80;99.90
23251;DHT22;11794;49.730;10.088;2022-10-15T01:56:38;13.80;99.90
23251;DHT22;11794;49.730;10.088;2022-10-15T01:59:06;13.80;99.90
23251;DHT22;11794;49.730;10.088;2022-10-15T02:01:33;13.80;99.90
23251;DHT22;11794;49.730;10.088;2022-10-15T02:03:58;13.70;99.90
23251;DHT22;11794;49.730;10.088;2022-10-15T02:06:36;13.70;99.90
23251;DHT22;11794;49.730;10.088;2022-10-15T02:09:19;13.80;99.90
23251;DHT22;11794;49.730;10.088;2022-10-15T02:14:33;13.80;99.90
23251;DHT22;11794;49.730;10.088;2022-10-15T02:17:08;13.80;99.90
23251;DHT22;11794;49.730;10.088;2022-10-15T02:20:08;13.70;99.90
23251;DHT22;11794;49.730;10.088;2022-10-15T02:22:43;13.70;99.90
23251;DHT22;11794;49.730;10.088;2022-10-15T02:25:23;13.70;99.90
23251;DHT22;11794;49.730;10.088;2022-10-15T02:27:52;13.70;99.90
23251;DHT22;11794;49.730;10.088;2022-10-15T02:30:19;13.70;99.90
23251;DHT22;11794;49.730;10.088;2022-10-15T02:32:48;13.80;99.90
23251;DHT22;11794;49.730;10.088;2022-10-15T02:35:15;13.80;99.90
23251;DHT22;11794;49.730;10.088;2022-10-15T02:37:46;13.80;99.90
23251;DHT22;11794;49.730;10.088;2022-10-15T02:40:13;13.80;99.90
23251;DHT22;11794;49.730;10.088;2022-10-15T02:42:39;13.80;99.90
23251;DHT22;11794;49.730;10.088;2022-10-15T02:45:05;13.80;99.90
23251;DHT22;11794;49.730;10.088;2022-10-15T02:47:30;13.80;99.90
23251;DHT22;11794;49.730;10.088;2022-10-15T02:49:57;13.80;99.90
23251;DHT22;11794;49.730;10.088;2022-10-15T02:52:22;13.80;99.90
23251;DHT22;11794;49.730;10.088;2022-10-15T02:54:48;13.80;99.90
23251;DHT22;11794;49.730;10.088;2022-10-15T02:57:13;13.80;99.90
23251;DHT22;11794;49.730;10.088;2022-10-15T02:59:39;13.80;99.90
23251;DHT22;11794;49.730;10.088;2022-10-15T03:02:05;13.80;99.90
23251;DHT22;11794;49.730;10.088;2022-10-15T03:04:30;13.80;99.90
23251;DHT22;11794;49.730;10.088;2022-10-15T03:06:56;13.80;99.90
23251;DHT22;11794;49.730;10.088;2022-10-15T03:09:21;13.80;99.90
23251;DHT22;11794;49.730;10.088;2022-10-15T03:11:47;13.80;99.90
23251;DHT22;11794;49.730;10.088;2022-10-15T03:14:12;13.80;99.90
23251;DHT22;11794;49.730;10.088;2022-10-15T03:16:38;13.80;99.90
23251;DHT22;11794;49.730;10.088;2022-10-15T03:19:04;13.90;99.90
23251;DHT22;11794;49.730;10.088;2022-10-15T03:21:29;13.80;99.90
23251;DHT22;11794;49.730;10.088;2022-10-15T03:23:56;13.80;99.90
23251;DHT22;11794;49.730;10.088;2022-10-15T03:26:21;13.90;99.90
23251;DHT22;11794;49.730;10.088;2022-10-15T03:28:47;13.80;99.90
23251;DHT22;11794;49.730;10.088;2022-10-15T03:31:12;13.80;99.90
23251;DHT22;11794;49.730;10.088;2022-10-15T03:33:38;13.80;99.90
23251;DHT22;11794;49.730;10.088;2022-10-15T03:36:04;13.90;99.90
23251;DHT22;11794;49.730;10.088;2022-10-15T03:38:31;13.90;99.90
23251;DHT22;11794;49.730;10.088;2022-10-15T03:40:56;13.90;99.90
23251;DHT22;11794;49.730;10.088;2022-10-15T03:43:25;13.90;99.90
23251;DHT22;11794;49.730;10.088;2022-10-15T03:45:51;13.80;99.90
23251;DHT22;11794;49.730;10.088;2022-10-15T03:48:17;13.90;99.90
23251;DHT22;11794;49.730;10.088;2022-10-15T03:50:44;13.90;99.90
23251;DHT22;11794;49.730;10.088;2022-10-15T03:53:09;13.90;99.90
23251;DHT22;11794;49.730;10.088;2022-10-15T03:55:35;13.90;99.90
23251;DHT22;11794;49.730;10.088;2022-10-15T03:58:00;13.90;99.90
23251;DHT22;11794;49.730;10.088;2022-10-15T04:00:27;13.80;99.90
23251;DHT22;11794;49.730;10.088;2022-10-15T04:02:52;13.80;99.90
23251;DHT22;11794;49.730;10.088;2022-10-15T04:05:18;13.80;99.90
23251;DHT22;11794;49.730;10.088;2022-10-15T04:07:44;13.80;99.90
23251;DHT22;11794;49.730;10.088;2022-10-15T04:10:09;13.80;99.90
23251;DHT22;11794;49.730;10.088;2022-10-15T04:12:35;13.80;99.90
23251;DHT22;11794;49.730;10.088;2022-10-15T04:15:00;13.80;99.90
23251;DHT22;11794;49.730;10.088;2022-10-15T04:17:26;13.80;99.90
23251;DHT22;11794;49.730;10.088;2022-10-15T04:19:51;13.80;99.90
23251;DHT22;11794;49.730;10.088;2022-10-15T04:22:17;13.80;99.90
23251;DHT22;11794;49.730;10.088;2022-10-15T04:24:43;13.80;99.90
23251;DHT22;11794;49.730;10.088;2022-10-15T04:27:09;13.80;99.90
23251;DHT22;11794;49.730;10.088;2022-10-15T04:29:35;13.90;99.90
23251;DHT22;11794;49.730;10.088;2022-10-15T04:32:00;13.80;99.90
23251;DHT22;11794;49.730;10.088;2022-10-15T04:34:26;13.90;99.90
23251;DHT22;11794;49.730;10.088;2022-10-15T04:36:52;13.90;99.90
23251;DHT22;11794;49.730;10.088;2022-10-15T04:39:18;13.90;99.90
23251;DHT22;11794;49.730;10.088;2022-10-15T04:41:43;13.90;99.90
23251;DHT22;11794;49.730;10.088;2022-10-15T04:44:09;13.90;99.90
23251;DHT22;11794;49.730;10.088;2022-10-15T04:46:34;13.90;99.90
23251;DHT22;11794;49.730;10.088;2022-10-15T04:49:00;13.90;99.90
23251;DHT22;11794;49.730;10.088;2022-10-15T04:51:26;13.90;99.90
23251;DHT22;11794;49.730;10.088;2022-10-15T04:53:51;14.00;99.90
23251;DHT22;11794;49.730;10.088;2022-10-15T04:56:19;14.00;99.90
23251;DHT22;11794;49.730;10.088;2022-10-15T04:58:46;14.00;99.90
23251;DHT22;11794;49.730;10.088;2022-10-15T05:01:15;14.00;99.90
23251;DHT22;11794;49.730;10.088;2022-10-15T05:03:42;14.00;99.90
23251;DHT22;11794;49.730;10.088;2022-10-15T05:06:11;14.00;99.90
23251;DHT22;11794;49.730;10.088;2022-10-15T05:08:38;14.00;99.90
23251;DHT22;11794;49.730;10.088;2022-10-15T05:11:08;14.00;99.90
23251;DHT22;11794;49.730;10.088;2022-10-15T05:13:34;14.00;99.90
23251;DHT22;11794;49.730;10.088;2022-10-15T05:16:15;14.00;99.90
23251;DHT22;11794;49.730;10.088;2022-10-15T05:18:42;14.00;99.90
23251;DHT22;11794;49.730;10.088;2022-10-15T05:21:09;14.10;99.90
23251;DHT22;11794;49.730;10.088;2022-10-15T05:23:35;14.10;99.90
23251;DHT22;11794;49.730;10.088;2022-10-15T05:26:03;14.10;99.90
23251;DHT22;11794;49.730;10.088;2022-10-15T05:28:29;14.10;99.90
23251;DHT22;11794;49.730;10.088;2022-10-15T05:30:55;14.10;99.90
23251;DHT22;11794;49.730;10.088;2022-10-15T05:33:21;14.10;99.90
23251;DHT22;11794;49.730;10.088;2022-10-15T05:35:47;14.10;99.90
23251;DHT22;11794;49.730;10.088;2022-10-15T05:38:12;14.10;99.90
23251;DHT22;11794;49.730;10.088;2022-10-15T05:40:38;14.10;99.90
23251;DHT22;11794;49.730;10.088;2022-10-15T05:43:04;14.10;99.90
23251;DHT22;11794;49.730;10.088;2022-10-15T05:45:29;14.10;99.90
23251;DHT22;11794;49.730;10.088;2022-10-15T05:47:55;14.10;99.90
23251;DHT22;11794;49.730;10.088;2022-10-15T05:50:21;14.10;99.90
23251;DHT22;11794;49.730;10.088;2022-10-15T05:52:47;14.10;99.90
23251;DHT22;11794;49.730;10.088;2022-10-15T05:55:13;14.10;99.90
23251;DHT22;11794;49.730;10.088;2022-10-15T05:57:38;14.10;99.90
23251;DHT22;11794;49.730;10.088;2022-10-15T06:00:05;14.10;99.90
23251;DHT22;11794;49.730;10.088;2022-10-15T06:02:31;14.20;99.90
23251;DHT22;11794;49.730;10.088;2022-10-15T06:04:57;14.10;99.90
23251;DHT22;11794;49.730;10.088;2022-10-15T06:07:22;14.10;99.90
23251;DHT22;11794;49.730;10.088;2022-10-15T06:09:48;14.20;99.90
23251;DHT22;11794;49.730;10.088;2022-10-15T06:12:13;14.20;99.90
23251;DHT22;11794;49.730;10.088;2022-10-15T06:14:39;14.30;99.90
23251;DHT22;11794;49.730;10.088;2022-10-15T06:17:04;14.30;99.90
23251;DHT22;11794;49.730;10.088;2022-10-15T06:19:30;14.30;99.90
23251;DHT22;11794;49.730;10.088;2022-10-15T06:21:56;14.30;99.90
23251;DHT22;11794;49.730;10.088;2022-10-15T06:24:22;14.30;99.90
23251;DHT22;11794;49.730;10.088;2022-10-15T06:26:47;14.30;99.90
23251;DHT22;11794;49.730;10.088;2022-10-15T06:29:13;14.40;99.90
23251;DHT22;11794;49.730;10.088;2022-10-15T06:31:38;14.40;99.90
23251;DHT22;11794;49.730;10.088;2022-10-15T06:34:04;14.40;99.90
23251;DHT22;11794;49.730;10.088;2022-10-15T06:36:29;14.50;99.90
23251;DHT22;11794;49.730;10.088;2022-10-15T06:38:55;14.50;99.90
23251;DHT22;11794;49.730;10.088;2022-10-15T06:41:20;14.50;99.90
23251;DHT22;11794;49.730;10.088;2022-10-15T06:43:49;14.60;99.90
23251;DHT22;11794;49.730;10.088;2022-10-15T06:46:15;14.70;99.90
23251;DHT22;11794;49.730;10.088;2022-10-15T06:48:40;14.70;99.90
23251;DHT22;11794;49.730;10.088;2022-10-15T06:51:06;14.70;99.90
23251;DHT22;11794;49.730;10.088;2022-10-15T06:53:32;14.80;99.90
23251;DHT22;11794;49.730;10.088;2022-10-15T06:56:02;14.80;99.90
23251;DHT22;11794;49.730;10.088;2022-10-15T06:58:28;14.80;99.90
23251;DHT22;11794;49.730;10.088;2022-10-15T07:00:59;14.80;99.90
23251;DHT22;11794;49.730;10.088;2022-10-15T07:03:25;14.80;99.90
23251;DHT22;11794;49.730;10.088;2022-10-15T07:05:51;14.90;99.90
23251;DHT22;11794;49.730;10.088;2022-10-15T07:08:16;14.90;99.90
23251;DHT22;11794;49.730;10.088;2022-10-15T07:10:42;14.90;99.90
23251;DHT22;11794;49.730;10.088;2022-10-15T07:13:07;14.90;99.90
23251;DHT22;11794;49.730;10.088;2022-10-15T07:15:33;14.90;99.90
23251;DHT22;11794;49.730;10.088;2022-10-15T07:17:59;15.00;99.90
23251;DHT22;11794;49.730;10.088;2022-10-15T07:20:30;15.00;99.90
23251;DHT22;11794;49.730;10.088;2022-10-15T07:23:00;15.00;99.90
23251;DHT22;11794;49.730;10.088;2022-10-15T07:25:26;15.00;99.90
23251;DHT22;11794;49.730;10.088;2022-10-15T07:27:52;14.90;99.90
23251;DHT22;11794;49.730;10.088;2022-10-15T07:30:20;15.00;99.90
23251;DHT22;11794;49.730;10.088;2022-10-15T07:32:46;15.00;99.90
23251;DHT22;11794;49.730;10.088;2022-10-15T07:35:11;15.10;99.90
23251;DHT22;11794;49.730;10.088;2022-10-15T07:37:37;15.10;99.90
23251;DHT22;11794;49.730;10.088;2022-10-15T07:40:03;15.10;99.90
23251;DHT22;11794;49.730;10.088;2022-10-15T07:42:28;15.10;99.90
23251;DHT22;11794;49.730;10.088;2022-10-15T07:44:54;15.10;99.90
23251;DHT22;11794;49.730;10.088;2022-10-15T07:47:20;15.10;99.90
23251;DHT22;11794;49.730;10.088;2022-10-15T07:49:45;15.10;99.90
23251;DHT22;11794;49.730;10.088;2022-10-15T07:52:11;15.10;99.90
23251;DHT22;11794;49.730;10.088;2022-10-15T07:54:36;15.20;99.90
23251;DHT22;11794;49.730;10.088;2022-10-15T07:57:02;15.20;99.90
23251;DHT22;11794;49.730;10.088;2022-10-15T07:59:27;15.20;99.90
23251;DHT22;11794;49.730;10.088;2022-10-15T08:01:53;15.20;99.90
23251;DHT22;11794;49.730;10.088;2022-10-15T08:04:19;15.30;99.90
23251;DHT22;11794;49.730;10.088;2022-10-15T08:06:45;15.30;99.90
23251;DHT22;11794;49.730;10.088;2022-10-15T08:09:11;15.30;99.90
23251;DHT22;11794;49.730;10.088;2022-10-15T08:11:37;15.40;99.90
23251;DHT22;11794;49.730;10.088;2022-10-15T08:14:02;15.40;99.90
23251;DHT22;11794;49.730;10.088;2022-10-15T08:16:28;15.50;99.90
23251;DHT22;11794;49.730;10.088;2022-10-15T08:18:54;15.50;99.90
23251;DHT22;11794;49.730;10.088;2022-10-15T08:21:20;15.50;99.90
23251;DHT22;11794;49.730;10.088;2022-10-15T08:23:45;15.50;99.90
23251;DHT22;11794;49.730;10.088;2022-10-15T08:26:12;15.50;99.90
23251;DHT22;11794;49.730;10.088;2022-10-15T08:28:37;15.50;99.90
23251;DHT22;11794;49.730;10.088;2022-10-15T08:31:03;15.60;99.90
23251;DHT22;11794;49.730;10.088;2022-10-15T08:33:29;15.50;99.90
23251;DHT22;11794;49.730;10.088;2022-10-15T08:35:55;15.50;99.90
23251;DHT22;11794;49.730;10.088;2022-10-15T08:38:20;15.50;99.90
23251;DHT22;11794;49.730;10.088;2022-10-15T08:40:48;15.70;99.90
23251;DHT22;11794;49.730;10.088;2022-10-15T08:43:38;15.70;99.90
23251;DHT22;11794;49.730;10.088;2022-10-15T08:46:17;15.80;99.90
23251;DHT22;11794;49.730;10.088;2022-10-15T08:48:54;15.80;99.90
23251;DHT22;11794;49.730;10.088;2022-10-15T08:51:37;16.00;99.90
23251;DHT22;11794;49.730;10.088;2022-10-15T08:54:05;15.90;99.90
23251;DHT22;11794;49.730;10.088;2022-10-15T08:56:37;16.10;99.90
23251;DHT22;11794;49.730;10.088;2022-10-15T09:04:47;16.40;99.90
23251;DHT22;11794;49.730;10.088;2022-10-15T09:07:43;16.50;99.90
23251;DHT22;11794;49.730;10.088;2022-10-15T09:10:15;16.60;99.90
23251;DHT22;11794;49.730;10.088;2022-10-15T09:13:09;16.80;99.90
23251;DHT22;11794;49.730;10.088;2022-10-15T09:15:44;16.90;99.90
23251;DHT22;11794;49.730;10.088;2022-10-15T09:18:18;16.80;99.90
23251;DHT22;11794;49.730;10.088;2022-10-15T09:20:45;16.70;99.90
23251;DHT22;11794;49.730;10.088;2022-10-15T09:23:20;16.80;99.90
23251;DHT22;11794;49.730;10.088;2022-10-15T09:26:05;16.90;99.90
23251;DHT22;11794;49.730;10.088;2022-10-15T09:28:44;17.10;99.90
23251;DHT22;11794;49.730;10.088;2022-10-15T09:31:12;17.30;99.90
23251;DHT22;11794;49.730;10.088;2022-10-15T09:33:47;17.50;99.90
23251;DHT22;11794;49.730;10.088;2022-10-15T09:36:39;17.80;99.90
23251;DHT22;11794;49.730;10.088;2022-10-15T09:39:25;18.70;99.90
23251;DHT22;11794;49.730;10.088;2022-10-15T09:44:37;20.00;99.90
23251;DHT22;11794;49.730;10.088;2022-10-15T09:49:51;19.60;99.90
23251;DHT22;11794;49.730;10.088;2022-10-15T09:55:49;19.20;99.90
23251;DHT22;11794;49.730;10.088;2022-10-15T09:58:25;19.10;99.90
23251;DHT22;11794;49.730;10.088;2022-10-15T10:01:00;19.30;99.90
23251;DHT22;11794;49.730;10.088;2022-10-15T10:03:29;19.70;99.90
23251;DHT22;11794;49.730;10.088;2022-10-15T10:06:05;20.20;99.90
23251;DHT22;11794;49.730;10.088;2022-10-15T10:11:10;20.40;99.90
23251;DHT22;11794;49.730;10.088;2022-10-15T10:13:43;20.60;99.90
23251;DHT22;11794;49.730;10.088;2022-10-15T10:16:12;20.80;99.90
23251;DHT22;11794;49.730;10.088;2022-10-15T10:18:38;20.40;99.90
23251;DHT22;11794;49.730;10.088;2022-10-15T10:21:08;19.50;99.90
23251;DHT22;11794;49.730;10.088;2022-10-15T10:23:44;19.40;99.90
23251;DHT22;11794;49.730;10.088;2022-10-15T10:26:10;19.20;99.90
23251;DHT22;11794;49.730;10.088;2022-10-15T10:28:40;19.00;99.90
23251;DHT22;11794;49.730;10.088;2022-10-15T10:31:09;18.90;99.90
23251;DHT22;11794;49.730;10.088;2022-10-15T10:33:47;18.90;99.90
23251;DHT22;11794;49.730;10.088;2022-10-15T10:36:24;18.60;99.90
23251;DHT22;11794;49.730;10.088;2022-10-15T10:39:13;18.50;99.90
23251;DHT22;11794;49.730;10.088;2022-10-15T10:44:38;18.10;99.90
23251;DHT22;11794;49.730;10.088;2022-10-15T10:47:11;18.00;99.90
23251;DHT22;11794;49.730;10.088;2022-10-15T10:49:40;17.90;99.90
23251;DHT22;11794;49.730;10.088;2022-10-15T10:52:21;17.80;99.90
23251;DHT22;11794;49.730;10.088;2022-10-15T10:55:37;17.80;99.90
23251;DHT22;11794;49.730;10.088;2022-10-15T11:00:15;17.90;99.90
23251;DHT22;11794;49.730;10.088;2022-10-15T11:02:42;17.90;99.90
23251;DHT22;11794;49.730;10.088;2022-10-15T11:05:09;17.90;99.90
23251;DHT22;11794;49.730;10.088;2022-10-15T11:10:34;18.30;99.90
23251;DHT22;11794;49.730;10.088;2022-10-15T11:16:15;18.30;99.90
23251;DHT22;11794;49.730;10.088;2022-10-15T11:18:53;18.10;99.90
23251;DHT22;11794;49.730;10.088;2022-10-15T11:29:39;18.10;99.90
23251;DHT22;11794;49.730;10.088;2022-10-15T11:44:12;17.70;99.90
23251;DHT22;11794;49.730;10.088;2022-10-15T11:46:46;17.60;99.90
23251;DHT22;11794;49.730;10.088;2022-10-15T11:49:30;17.60;99.90
23251;DHT22;11794;49.730;10.088;2022-10-15T11:55:18;17.60;99.90
23251;DHT22;11794;49.730;10.088;2022-10-15T11:57:46;17.60;99.90
23251;DHT22;11794;49.730;10.088;2022-10-15T12:00:30;17.50;99.90
23251;DHT22;11794;49.730;10.088;2022-10-15T12:03:11;17.50;99.90
23251;DHT22;11794;49.730;10.088;2022-10-15T12:05:47;17.50;99.90
23251;DHT22;11794;49.730;10.088;2022-10-15T12:08:15;17.60;99.90
23251;DHT22;11794;49.730;10.088;2022-10-15T12:13:33;17.50;99.90
23251;DHT22;11794;49.730;10.088;2022-10-15T12:18:49;17.30;99.90
23251;DHT22;11794;49.730;10.088;2022-10-15T12:21:30;17.20;99.90
23251;DHT22;11794;49.730;10.088;2022-10-15T12:23:57;17.30;99.90
23251;DHT22;11794;49.730;10.088;2022-10-15T12:28:50;17.20;99.90
23251;DHT22;11794;49.730;10.088;2022-10-15T12:31:17;17.10;99.90
23251;DHT22;11794;49.730;10.088;2022-10-15T12:33:52;17.10;99.90
23251;DHT22;11794;49.730;10.088;2022-10-15T12:39:02;17.40;99.90
23251;DHT22;11794;49.730;10.088;2022-10-15T12:41:40;17.60;99.90
23251;DHT22;11794;49.730;10.088;2022-10-15T12:44:17;17.70;99.90
23251;DHT22;11794;49.730;10.088;2022-10-15T12:46:43;17.90;99.90
23251;DHT22;11794;49.730;10.088;2022-10-15T12:51:57;18.20;99.90
23251;DHT22;11794;49.730;10.088;2022-10-15T12:57:02;18.90;99.90
23251;DHT22;11794;49.730;10.088;2022-10-15T12:59:52;19.60;99.90
23251;DHT22;11794;49.730;10.088;2022-10-15T13:02:40;19.50;99.90
23251;DHT22;11794;49.730;10.088;2022-10-15T13:05:22;19.50;99.90
23251;DHT22;11794;49.730;10.088;2022-10-15T13:07:48;20.20;99.90
23251;DHT22;11794;49.730;10.088;2022-10-15T13:10:20;20.20;99.90
23251;DHT22;11794;49.730;10.088;2022-10-15T13:12:57;20.80;99.90
23251;DHT22;11794;49.730;10.088;2022-10-15T13:15:25;22.30;99.90
23251;DHT22;11794;49.730;10.088;2022-10-15T13:17:54;23.80;99.90
23251;DHT22;11794;49.730;10.088;2022-10-15T13:20:41;23.50;99.90
23251;DHT22;11794;49.730;10.088;2022-10-15T13:23:18;23.70;99.90
23251;DHT22;11794;49.730;10.088;2022-10-15T13:25:46;24.40;99.90
23251;DHT22;11794;49.730;10.088;2022-10-15T13:28:32;24.70;99.90
23251;DHT22;11794;49.730;10.088;2022-10-15T13:31:00;25.50;99.90
23251;DHT22;11794;49.730;10.088;2022-10-15T13:33:26;24.90;99.90
23251;DHT22;11794;49.730;10.088;2022-10-15T13:35:52;23.60;99.90
23251;DHT22;11794;49.730;10.088;2022-10-15T13:38:23;22.20;99.90
23251;DHT22;11794;49.730;10.088;2022-10-15T13:40:52;21.40;99.90
23251;DHT22;11794;49.730;10.088;2022-10-15T13:43:22;21.20;99.90
23251;DHT22;11794;49.730;10.088;2022-10-15T13:45:53;20.90;99.90
23251;DHT22;11794;49.730;10.088;2022-10-15T13:48:25;20.00;99.90
23251;DHT22;11794;49.730;10.088;2022-10-15T13:50:56;19.70;99.90
23251;DHT22;11794;49.730;10.088;2022-10-15T13:53:27;19.40;99.90
23251;DHT22;11794;49.730;10.088;2022-10-15T13:55:56;19.10;99.90
23251;DHT22;11794;49.730;10.088;2022-10-15T14:03:34;18.50;99.90
23251;DHT22;11794;49.730;10.088;2022-10-15T14:06:23;18.40;99.90
23251;DHT22;11794;49.730;10.088;2022-10-15T14:08:58;18.30;99.90
23251;DHT22;11794;49.730;10.088;2022-10-15T14:11:25;18.40;99.90
23251;DHT22;11794;49.730;10.088;2022-10-15T14:13:54;18.60;99.90
23251;DHT22;11794;49.730;10.088;2022-10-15T14:16:28;18.70;99.90
23251;DHT22;11794;49.730;10.088;2022-10-15T14:18:58;18.60;99.90
23251;DHT22;11794;49.730;10.088;2022-10-15T14:21:33;18.60;99.90
23251;DHT22;11794;49.730;10.088;2022-10-15T14:24:18;18.70;99.90
23251;DHT22;11794;49.730;10.088;2022-10-15T14:26:45;18.80;99.90
23251;DHT22;11794;49.730;10.088;2022-10-15T14:29:25;19.10;99.90
23251;DHT22;11794;49.730;10.088;2022-10-15T14:31:51;19.20;99.90
23251;DHT22;11794;49.730;10.088;2022-10-15T14:36:58;18.70;99.90
23251;DHT22;11794;49.730;10.088;2022-10-15T14:39:26;18.50;99.90
23251;DHT22;11794;49.730;10.088;2022-10-15T14:42:03;18.30;99.90
23251;DHT22;11794;49.730;10.088;2022-10-15T14:44:46;18.20;99.90
23251;DHT22;11794;49.730;10.088;2022-10-15T14:49:42;18.10;99.90
23251;DHT22;11794;49.730;10.088;2022-10-15T14:52:13;18.10;99.90
23251;DHT22;11794;49.730;10.088;2022-10-15T14:54:56;18.00;99.90
23251;DHT22;11794;49.730;10.088;2022-10-15T14:57:25;18.00;99.90
23251;DHT22;11794;49.730;10.088;2022-10-15T14:59:53;18.00;99.90
23251;DHT22;11794;49.730;10.088;2022-10-15T15:02:22;17.90;99.90
23251;DHT22;11794;49.730;10.088;2022-10-15T15:07:38;17.80;99.90
23251;DHT22;11794;49.730;10.088;2022-10-15T15:10:05;17.80;99.90
23251;DHT22;11794;49.730;10.088;2022-10-15T15:12:31;17.70;99.90
23251;DHT22;11794;49.730;10.088;2022-10-15T15:14:58;17.70;99.90
23251;DHT22;11794;49.730;10.088;2022-10-15T15:17:26;17.50;99.90
23251;DHT22;11794;49.730;10.088;2022-10-15T15:19:54;17.40;99.90
23251;DHT22;11794;49.730;10.088;2022-10-15T15:22:26;17.30;99.90
23251;DHT22;11794;49.730;10.088;2022-10-15T15:24:52;17.20;99.90
23251;DHT22;11794;49.730;10.088;2022-10-15T15:27:26;17.20;99.90
23251;DHT22;11794;49.730;10.088;2022-10-15T15:29:53;17.10;99.90
23251;DHT22;11794;49.730;10.088;2022-10-15T15:32:19;17.00;99.90
23251;DHT22;11794;49.730;10.088;2022-10-15T15:34:46;16.90;99.90
23251;DHT22;11794;49.730;10.088;2022-10-15T15:37:17;16.90;99.90
23251;DHT22;11794;49.730;10.088;2022-10-15T15:39:43;16.90;99.90
23251;DHT22;11794;49.730;10.088;2022-10-15T15:42:16;16.80;99.90
23251;DHT22;11794;49.730;10.088;2022-10-15T15:44:42;16.80;99.90
23251;DHT22;11794;49.730;10.088;2022-10-15T15:47:08;16.80;99.90
23251;DHT22;11794;49.730;10.088;2022-10-15T15:49:35;16.80;99.90
23251;DHT22;11794;49.730;10.088;2022-10-15T15:52:01;16.80;99.90
23251;DHT22;11794;49.730;10.088;2022-10-15T15:54:27;16.80;99.90
23251;DHT22;11794;49.730;10.088;2022-10-15T15:56:52;16.80;99.90
23251;DHT22;11794;49.730;10.088;2022-10-15T15:59:18;16.70;99.90
23251;DHT22;11794;49.730;10.088;2022-10-15T16:01:44;16.80;99.90
23251;DHT22;11794;49.730;10.088;2022-10-15T16:04:13;16.70;99.90
23251;DHT22;11794;49.730;10.088;2022-10-15T16:06:39;16.70;99.90
23251;DHT22;11794;49.730;10.088;2022-10-15T16:09:05;16.70;99.90
23251;DHT22;11794;49.730;10.088;2022-10-15T16:11:31;16.70;99.90
23251;DHT22;11794;49.730;10.088;2022-10-15T16:13:57;16.70;99.90
23251;DHT22;11794;49.730;10.088;2022-10-15T16:16:23;16.70;99.90
23251;DHT22;11794;49.730;10.088;2022-10-15T16:18:49;16.80;99.90
23251;DHT22;11794;49.730;10.088;2022-10-15T16:21:23;16.80;99.90
23251;DHT22;11794;49.730;10.088;2022-10-15T16:23:48;16.80;99.90
23251;DHT22;11794;49.730;10.088;2022-10-15T16:26:14;16.70;99.90
23251;DHT22;11794;49.730;10.088;2022-10-15T16:28:40;16.70;99.90
23251;DHT22;11794;49.730;10.088;2022-10-15T16:31:18;16.60;99.90
23251;DHT22;11794;49.730;10.088;2022-10-15T16:33:44;16.50;99.90
23251;DHT22;11794;49.730;10.088;2022-10-15T16:36:10;16.50;99.90
23251;DHT22;11794;49.730;10.088;2022-10-15T16:38:38;16.50;99.90
23251;DHT22;11794;49.730;10.088;2022-10-15T16:41:04;16.40;99.90
23251;DHT22;11794;49.730;10.088;2022-10-15T16:43:29;16.50;99.90
23251;DHT22;11794;49.730;10.088;2022-10-15T16:45:58;16.50;99.90
23251;DHT22;11794;49.730;10.088;2022-10-15T16:48:24;16.40;99.90
23251;DHT22;11794;49.730;10.088;2022-10-15T16:51:08;16.40;99.90
23251;DHT22;11794;49.730;10.088;2022-10-15T16:53:35;16.40;99.90
23251;DHT22;11794;49.730;10.088;2022-10-15T16:56:05;16.40;99.90
23251;DHT22;11794;49.730;10.088;2022-10-15T16:58:31;16.40;99.90
23251;DHT22;11794;49.730;10.088;2022-10-15T17:01:02;16.30;99.90
23251;DHT22;11794;49.730;10.088;2022-10-15T17:03:28;16.30;99.90
23251;DHT22;11794;49.730;10.088;2022-10-15T17:05:56;16.30;99.90
23251;DHT22;11794;49.730;10.088;2022-10-15T17:08:22;16.30;99.90